sensor_id;sensor_type;location;lat;lon;timestamp;P1;durP1;ratioP1;P2;durP2;ratioP2
21270;SDS011;10795;50.796;3.860;2022-12-10T00:01:18;81.55;;;30.35;;
21270;SDS011;10795;50.796;3.860;2022-12-10T00:03:45;72.10;;;28.95;;
21270;SDS011;10795;50.796;3.860;2022-12-10T00:06:12;75.32;;;28.80;;
21270;SDS011;10795;50.796;3.860;2022-12-10T00:08:39;70.40;;;27.20;;
21270;SDS011;10795;50.796;3.860;2022-12-10T00:11:06;76.53;;;30.35;;
21270;SDS011;10795;50.796;3.860;2022-12-10T00:13:34;75.43;;;29.92;;
21270;SDS011;10795;50.796;3.860;2022-12-10T00:16:04;72.82;;;29.63;;
21270;SDS011;10795;50.796;3.860;2022-12-10T00:18:32;72.22;;;28.83;;
21270;SDS011;10795;50.796;3.860;2022-12-10T00:21:01;84.32;;;31.40;;
21270;SDS011;10795;50.796;3.860;2022-12-10T00:23:31;76.93;;;28.10;;
21270;SDS011;10795;50.796;3.860;2022-12-10T00:26:09;78.65;;;29.73;;
21270;SDS011;10795;50.796;3.860;2022-12-10T00:28:40;77.97;;;29.05;;
21270;SDS011;10795;50.796;3.860;2022-12-10T00:31:08;81.07;;;31.58;;
21270;SDS011;10795;50.796;3.860;2022-12-10T00:33:36;85.88;;;30.38;;
21270;SDS011;10795;50.796;3.860;2022-12-10T00:36:13;87.22;;;31.98;;
21270;SDS011;10795;50.796;3.860;2022-12-10T00:38:43;77.15;;;30.13;;
21270;SDS011;10795;50.796;3.860;2022-12-10T00:41:10;84.07;;;31.98;;
21270;SDS011;10795;50.796;3.860;2022-12-10T00:43:37;89.93;;;31.45;;
21270;SDS011;10795;50.796;3.860;2022-12-10T00:46:03;64.35;;;26.27;;
21270;SDS011;10795;50.796;3.860;2022-12-10T00:48:29;80.05;;;30.55;;
21270;SDS011;10795;50.796;3.860;2022-12-10T00:50:56;76.07;;;30.05;;
21270;SDS011;10795;50.796;3.860;2022-12-10T00:53:34;78.57;;;30.67;;
21270;SDS011;10795;50.796;3.860;2022-12-10T00:56:01;90.38;;;33.03;;
21270;SDS011;10795;50.796;3.860;2022-12-10T00:58:29;80.50;;;30.52;;
21270;SDS011;10795;50.796;3.860;2022-12-10T01:01:07;91.82;;;34.42;;
21270;SDS011;10795;50.796;3.860;2022-12-10T01:03:34;78.43;;;28.17;;
21270;SDS011;10795;50.796;3.860;2022-12-10T01:06:11;88.28;;;30.98;;
21270;SDS011;10795;50.796;3.860;2022-12-10T01:08:48;86.95;;;31.20;;
21270;SDS011;10795;50.796;3.860;2022-12-10T01:11:16;89.35;;;32.88;;
21270;SDS011;10795;50.796;3.860;2022-12-10T01:13:43;88.95;;;32.85;;
21270;SDS011;10795;50.796;3.860;2022-12-10T01:16:11;84.93;;;32.55;;
21270;SDS011;10795;50.796;3.860;2022-12-10T01:18:39;90.28;;;33.17;;
21270;SDS011;10795;50.796;3.860;2022-12-10T01:21:07;81.35;;;30.75;;
21270;SDS011;10795;50.796;3.860;2022-12-10T01:23:35;89.60;;;31.55;;
21270;SDS011;10795;50.796;3.860;2022-12-10T01:26:02;90.20;;;32.03;;
21270;SDS011;10795;50.796;3.860;2022-12-10T01:28:31;94.95;;;34.33;;
21270;SDS011;10795;50.796;3.860;2022-12-10T01:31:02;90.18;;;33.42;;
21270;SDS011;10795;50.796;3.860;2022-12-10T01:33:30;94.20;;;34.15;;
21270;SDS011;10795;50.796;3.860;2022-12-10T01:36:01;100.97;;;36.45;;
21270;SDS011;10795;50.796;3.860;2022-12-10T01:38:32;95.93;;;35.17;;
21270;SDS011;10795;50.796;3.860;2022-12-10T01:40:58;103.88;;;37.67;;
21270;SDS011;10795;50.796;3.860;2022-12-10T01:43:25;102.50;;;36.55;;
21270;SDS011;10795;50.796;3.860;2022-12-10T01:45:51;100.72;;;36.28;;
21270;SDS011;10795;50.796;3.860;2022-12-10T01:48:18;91.38;;;33.00;;
21270;SDS011;10795;50.796;3.860;2022-12-10T01:50:44;101.30;;;35.85;;
21270;SDS011;10795;50.796;3.860;2022-12-10T01:53:11;98.53;;;35.95;;
21270;SDS011;10795;50.796;3.860;2022-12-10T01:55:45;99.80;;;38.05;;
21270;SDS011;10795;50.796;3.860;2022-12-10T01:58:16;115.60;;;36.83;;
21270;SDS011;10795;50.796;3.860;2022-12-10T02:00:46;95.47;;;33.33;;
21270;SDS011;10795;50.796;3.860;2022-12-10T02:03:24;105.65;;;33.95;;
21270;SDS011;10795;50.796;3.860;2022-12-10T02:06:16;102.22;;;35.38;;
21270;SDS011;10795;50.796;3.860;2022-12-10T02:11:37;97.97;;;35.97;;
21270;SDS011;10795;50.796;3.860;2022-12-10T02:14:06;107.95;;;37.20;;
21270;SDS011;10795;50.796;3.860;2022-12-10T02:16:47;100.25;;;35.00;;
21270;SDS011;10795;50.796;3.860;2022-12-10T02:19:34;102.55;;;36.15;;
21270;SDS011;10795;50.796;3.860;2022-12-10T02:22:01;108.88;;;38.33;;
21270;SDS011;10795;50.796;3.860;2022-12-10T02:24:31;113.35;;;37.83;;
21270;SDS011;10795;50.796;3.860;2022-12-10T02:30:07;99.18;;;32.40;;
21270;SDS011;10795;50.796;3.860;2022-12-10T02:32:37;123.50;;;40.13;;
21270;SDS011;10795;50.796;3.860;2022-12-10T02:35:12;111.63;;;35.38;;
21270;SDS011;10795;50.796;3.860;2022-12-10T02:37:58;107.25;;;35.95;;
21270;SDS011;10795;50.796;3.860;2022-12-10T02:40:32;95.93;;;33.45;;
21270;SDS011;10795;50.796;3.860;2022-12-10T02:43:02;114.97;;;38.65;;
21270;SDS011;10795;50.796;3.860;2022-12-10T02:45:28;117.72;;;38.85;;
21270;SDS011;10795;50.796;3.860;2022-12-10T02:47:59;120.70;;;38.95;;
21270;SDS011;10795;50.796;3.860;2022-12-10T02:50:34;119.32;;;38.95;;
21270;SDS011;10795;50.796;3.860;2022-12-10T02:53:02;122.75;;;39.20;;
21270;SDS011;10795;50.796;3.860;2022-12-10T02:55:29;138.13;;;42.00;;
21270;SDS011;10795;50.796;3.860;2022-12-10T03:00:50;117.50;;;38.13;;
21270;SDS011;10795;50.796;3.860;2022-12-10T03:11:30;114.63;;;36.35;;
21270;SDS011;10795;50.796;3.860;2022-12-10T03:13:58;113.15;;;35.47;;
21270;SDS011;10795;50.796;3.860;2022-12-10T03:16:33;101.78;;;34.58;;
21270;SDS011;10795;50.796;3.860;2022-12-10T03:19:05;103.22;;;33.78;;
21270;SDS011;10795;50.796;3.860;2022-12-10T03:21:35;111.57;;;36.35;;
21270;SDS011;10795;50.796;3.860;2022-12-10T03:24:07;112.25;;;34.58;;
21270;SDS011;10795;50.796;3.860;2022-12-10T03:26:36;102.32;;;32.83;;
21270;SDS011;10795;50.796;3.860;2022-12-10T03:29:06;116.80;;;34.60;;
21270;SDS011;10795;50.796;3.860;2022-12-10T03:31:35;117.85;;;35.55;;
21270;SDS011;10795;50.796;3.860;2022-12-10T03:34:04;104.78;;;35.60;;
21270;SDS011;10795;50.796;3.860;2022-12-10T03:36:32;125.07;;;36.17;;
21270;SDS011;10795;50.796;3.860;2022-12-10T03:38:58;109.75;;;35.13;;
21270;SDS011;10795;50.796;3.860;2022-12-10T03:41:25;109.75;;;34.47;;
21270;SDS011;10795;50.796;3.860;2022-12-10T03:43:55;102.78;;;34.50;;
21270;SDS011;10795;50.796;3.860;2022-12-10T03:46:29;167.45;;;33.55;;
21270;SDS011;10795;50.796;3.860;2022-12-10T03:48:56;134.50;;;32.92;;
21270;SDS011;10795;50.796;3.860;2022-12-10T03:51:23;104.40;;;32.60;;
21270;SDS011;10795;50.796;3.860;2022-12-10T03:53:49;89.68;;;29.83;;
21270;SDS011;10795;50.796;3.860;2022-12-10T03:56:16;85.15;;;29.40;;
21270;SDS011;10795;50.796;3.860;2022-12-10T03:58:42;116.93;;;31.33;;
21270;SDS011;10795;50.796;3.860;2022-12-10T04:01:08;169.00;;;34.40;;
21270;SDS011;10795;50.796;3.860;2022-12-10T04:03:38;178.38;;;34.15;;
21270;SDS011;10795;50.796;3.860;2022-12-10T04:06:06;148.75;;;31.45;;
21270;SDS011;10795;50.796;3.860;2022-12-10T04:08:34;124.40;;;31.02;;
21270;SDS011;10795;50.796;3.860;2022-12-10T04:11:07;151.63;;;29.70;;
21270;SDS011;10795;50.796;3.860;2022-12-10T04:13:35;108.25;;;28.08;;
21270;SDS011;10795;50.796;3.860;2022-12-10T04:16:21;148.65;;;29.33;;
21270;SDS011;10795;50.796;3.860;2022-12-10T04:18:51;84.22;;;27.52;;
21270;SDS011;10795;50.796;3.860;2022-12-10T04:21:37;99.65;;;26.92;;
21270;SDS011;10795;50.796;3.860;2022-12-10T04:24:24;100.93;;;23.98;;
21270;SDS011;10795;50.796;3.860;2022-12-10T04:27:11;116.93;;;25.75;;
21270;SDS011;10795;50.796;3.860;2022-12-10T04:29:38;70.30;;;22.52;;
21270;SDS011;10795;50.796;3.860;2022-12-10T04:32:05;99.68;;;24.83;;
21270;SDS011;10795;50.796;3.860;2022-12-10T04:34:31;79.18;;;23.00;;
21270;SDS011;10795;50.796;3.860;2022-12-10T04:36:57;92.18;;;25.70;;
21270;SDS011;10795;50.796;3.860;2022-12-10T04:39:24;142.95;;;27.30;;
21270;SDS011;10795;50.796;3.860;2022-12-10T04:41:50;100.13;;;26.20;;
21270;SDS011;10795;50.796;3.860;2022-12-10T04:44:17;111.70;;;25.90;;
21270;SDS011;10795;50.796;3.860;2022-12-10T04:46:43;157.63;;;26.30;;
21270;SDS011;10795;50.796;3.860;2022-12-10T04:49:09;83.47;;;26.42;;
21270;SDS011;10795;50.796;3.860;2022-12-10T04:51:35;109.32;;;26.23;;
21270;SDS011;10795;50.796;3.860;2022-12-10T04:54:02;98.18;;;24.67;;
21270;SDS011;10795;50.796;3.860;2022-12-10T04:56:29;128.75;;;35.15;;
21270;SDS011;10795;50.796;3.860;2022-12-10T04:58:56;111.72;;;27.70;;
21270;SDS011;10795;50.796;3.860;2022-12-10T05:01:22;114.40;;;25.77;;
21270;SDS011;10795;50.796;3.860;2022-12-10T05:03:49;118.93;;;25.10;;
21270;SDS011;10795;50.796;3.860;2022-12-10T05:06:15;66.95;;;21.25;;
21270;SDS011;10795;50.796;3.860;2022-12-10T05:08:42;105.43;;;23.98;;
21270;SDS011;10795;50.796;3.860;2022-12-10T05:11:10;79.45;;;21.40;;
21270;SDS011;10795;50.796;3.860;2022-12-10T05:13:46;120.70;;;23.02;;
21270;SDS011;10795;50.796;3.860;2022-12-10T05:16:13;111.45;;;23.90;;
21270;SDS011;10795;50.796;3.860;2022-12-10T05:18:41;115.38;;;23.92;;
21270;SDS011;10795;50.796;3.860;2022-12-10T05:21:09;78.32;;;23.52;;
21270;SDS011;10795;50.796;3.860;2022-12-10T05:23:38;112.07;;;23.95;;
21270;SDS011;10795;50.796;3.860;2022-12-10T05:28:43;77.47;;;21.70;;
21270;SDS011;10795;50.796;3.860;2022-12-10T05:31:14;101.88;;;21.75;;
21270;SDS011;10795;50.796;3.860;2022-12-10T05:33:42;123.70;;;21.77;;
21270;SDS011;10795;50.796;3.860;2022-12-10T05:36:09;83.85;;;20.70;;
21270;SDS011;10795;50.796;3.860;2022-12-10T05:41:04;68.68;;;18.38;;
21270;SDS011;10795;50.796;3.860;2022-12-10T05:43:36;61.17;;;18.05;;
21270;SDS011;10795;50.796;3.860;2022-12-10T05:46:02;55.63;;;17.38;;
21270;SDS011;10795;50.796;3.860;2022-12-10T05:48:30;81.43;;;19.27;;
21270;SDS011;10795;50.796;3.860;2022-12-10T05:50:57;70.25;;;18.27;;
21270;SDS011;10795;50.796;3.860;2022-12-10T05:53:23;70.22;;;17.90;;
21270;SDS011;10795;50.796;3.860;2022-12-10T05:55:49;88.68;;;19.40;;
21270;SDS011;10795;50.796;3.860;2022-12-10T05:58:15;79.25;;;18.85;;
21270;SDS011;10795;50.796;3.860;2022-12-10T06:00:41;71.07;;;18.95;;
21270;SDS011;10795;50.796;3.860;2022-12-10T06:03:07;69.47;;;19.58;;
21270;SDS011;10795;50.796;3.860;2022-12-10T06:05:37;60.85;;;18.75;;
21270;SDS011;10795;50.796;3.860;2022-12-10T06:08:04;93.78;;;19.60;;
21270;SDS011;10795;50.796;3.860;2022-12-10T06:10:31;61.35;;;19.23;;
21270;SDS011;10795;50.796;3.860;2022-12-10T06:12:59;102.00;;;21.00;;
21270;SDS011;10795;50.796;3.860;2022-12-10T06:15:24;61.67;;;20.90;;
21270;SDS011;10795;50.796;3.860;2022-12-10T06:17:50;84.22;;;21.40;;
21270;SDS011;10795;50.796;3.860;2022-12-10T06:20:16;71.85;;;20.60;;
21270;SDS011;10795;50.796;3.860;2022-12-10T06:22:42;84.43;;;18.98;;
21270;SDS011;10795;50.796;3.860;2022-12-10T06:25:07;84.28;;;20.90;;
21270;SDS011;10795;50.796;3.860;2022-12-10T06:27:33;72.22;;;19.05;;
21270;SDS011;10795;50.796;3.860;2022-12-10T06:29:59;54.65;;;17.52;;
21270;SDS011;10795;50.796;3.860;2022-12-10T06:32:25;64.63;;;18.92;;
21270;SDS011;10795;50.796;3.860;2022-12-10T06:34:51;67.40;;;19.40;;
21270;SDS011;10795;50.796;3.860;2022-12-10T06:37:17;82.40;;;20.98;;
21270;SDS011;10795;50.796;3.860;2022-12-10T06:39:42;60.90;;;18.50;;
21270;SDS011;10795;50.796;3.860;2022-12-10T06:42:08;75.18;;;19.65;;
21270;SDS011;10795;50.796;3.860;2022-12-10T06:44:34;72.13;;;17.67;;
21270;SDS011;10795;50.796;3.860;2022-12-10T06:47:00;63.53;;;20.17;;
21270;SDS011;10795;50.796;3.860;2022-12-10T06:49:25;92.57;;;19.20;;
21270;SDS011;10795;50.796;3.860;2022-12-10T06:51:51;86.35;;;20.75;;
21270;SDS011;10795;50.796;3.860;2022-12-10T06:54:17;75.80;;;19.67;;
21270;SDS011;10795;50.796;3.860;2022-12-10T06:56:43;85.35;;;20.25;;
21270;SDS011;10795;50.796;3.860;2022-12-10T06:59:08;54.20;;;18.05;;
21270;SDS011;10795;50.796;3.860;2022-12-10T07:01:34;78.80;;;19.10;;
21270;SDS011;10795;50.796;3.860;2022-12-10T07:04:03;81.95;;;19.23;;
21270;SDS011;10795;50.796;3.860;2022-12-10T07:06:30;93.10;;;20.60;;
21270;SDS011;10795;50.796;3.860;2022-12-10T07:08:57;81.15;;;19.20;;
21270;SDS011;10795;50.796;3.860;2022-12-10T07:11:23;72.10;;;18.92;;
21270;SDS011;10795;50.796;3.860;2022-12-10T07:13:50;76.65;;;21.60;;
21270;SDS011;10795;50.796;3.860;2022-12-10T07:16:17;69.53;;;19.63;;
21270;SDS011;10795;50.796;3.860;2022-12-10T07:18:48;69.88;;;19.90;;
21270;SDS011;10795;50.796;3.860;2022-12-10T07:21:16;99.97;;;19.48;;
21270;SDS011;10795;50.796;3.860;2022-12-10T07:23:43;81.18;;;19.55;;
21270;SDS011;10795;50.796;3.860;2022-12-10T07:26:09;120.15;;;21.45;;
21270;SDS011;10795;50.796;3.860;2022-12-10T07:28:35;102.30;;;21.38;;
21270;SDS011;10795;50.796;3.860;2022-12-10T07:31:05;98.10;;;22.50;;
21270;SDS011;10795;50.796;3.860;2022-12-10T07:33:33;77.18;;;20.80;;
21270;SDS011;10795;50.796;3.860;2022-12-10T07:35:59;117.50;;;23.45;;
21270;SDS011;10795;50.796;3.860;2022-12-10T07:38:28;106.85;;;22.65;;
21270;SDS011;10795;50.796;3.860;2022-12-10T07:40:53;85.85;;;21.45;;
21270;SDS011;10795;50.796;3.860;2022-12-10T07:43:19;103.30;;;20.17;;
21270;SDS011;10795;50.796;3.860;2022-12-10T07:45:45;106.35;;;20.60;;
21270;SDS011;10795;50.796;3.860;2022-12-10T07:48:11;117.07;;;21.83;;
21270;SDS011;10795;50.796;3.860;2022-12-10T07:50:36;85.57;;;20.80;;
21270;SDS011;10795;50.796;3.860;2022-12-10T07:53:03;77.57;;;20.15;;
21270;SDS011;10795;50.796;3.860;2022-12-10T07:55:28;104.63;;;20.60;;
21270;SDS011;10795;50.796;3.860;2022-12-10T07:57:54;167.73;;;26.52;;
21270;SDS011;10795;50.796;3.860;2022-12-10T08:00:20;147.38;;;25.85;;
21270;SDS011;10795;50.796;3.860;2022-12-10T08:02:46;154.10;;;25.23;;
21270;SDS011;10795;50.796;3.860;2022-12-10T08:05:11;74.45;;;20.23;;
21270;SDS011;10795;50.796;3.860;2022-12-10T08:07:37;119.32;;;24.70;;
21270;SDS011;10795;50.796;3.860;2022-12-10T08:10:03;114.93;;;24.05;;
21270;SDS011;10795;50.796;3.860;2022-12-10T08:12:29;89.15;;;21.92;;
21270;SDS011;10795;50.796;3.860;2022-12-10T08:14:55;141.35;;;24.95;;
21270;SDS011;10795;50.796;3.860;2022-12-10T08:17:21;139.88;;;25.05;;
21270;SDS011;10795;50.796;3.860;2022-12-10T08:19:46;105.75;;;24.35;;
21270;SDS011;10795;50.796;3.860;2022-12-10T08:22:12;117.22;;;25.80;;
21270;SDS011;10795;50.796;3.860;2022-12-10T08:24:38;124.75;;;27.55;;
21270;SDS011;10795;50.796;3.860;2022-12-10T08:27:04;154.70;;;26.65;;
21270;SDS011;10795;50.796;3.860;2022-12-10T08:29:30;130.45;;;27.02;;
21270;SDS011;10795;50.796;3.860;2022-12-10T08:31:55;149.93;;;27.45;;
21270;SDS011;10795;50.796;3.860;2022-12-10T08:34:21;148.00;;;27.33;;
21270;SDS011;10795;50.796;3.860;2022-12-10T08:36:47;116.80;;;27.90;;
21270;SDS011;10795;50.796;3.860;2022-12-10T08:39:13;172.10;;;28.30;;
21270;SDS011;10795;50.796;3.860;2022-12-10T08:41:42;132.57;;;27.20;;
21270;SDS011;10795;50.796;3.860;2022-12-10T08:44:10;140.15;;;28.10;;
21270;SDS011;10795;50.796;3.860;2022-12-10T08:46:36;136.98;;;26.08;;
21270;SDS011;10795;50.796;3.860;2022-12-10T08:49:02;118.18;;;24.65;;
21270;SDS011;10795;50.796;3.860;2022-12-10T08:51:29;158.18;;;25.83;;
21270;SDS011;10795;50.796;3.860;2022-12-10T08:53:55;145.68;;;27.27;;
21270;SDS011;10795;50.796;3.860;2022-12-10T08:56:21;140.07;;;28.98;;
21270;SDS011;10795;50.796;3.860;2022-12-10T08:58:46;122.80;;;26.33;;
21270;SDS011;10795;50.796;3.860;2022-12-10T09:01:13;119.85;;;23.90;;
21270;SDS011;10795;50.796;3.860;2022-12-10T09:03:41;127.50;;;26.73;;
21270;SDS011;10795;50.796;3.860;2022-12-10T09:06:08;125.38;;;25.33;;
21270;SDS011;10795;50.796;3.860;2022-12-10T09:08:36;142.40;;;27.10;;
21270;SDS011;10795;50.796;3.860;2022-12-10T09:11:09;177.15;;;39.33;;
21270;SDS011;10795;50.796;3.860;2022-12-10T09:13:44;115.07;;;28.13;;
21270;SDS011;10795;50.796;3.860;2022-12-10T09:16:10;112.78;;;25.83;;
21270;SDS011;10795;50.796;3.860;2022-12-10T09:18:36;96.72;;;25.40;;
21270;SDS011;10795;50.796;3.860;2022-12-10T09:21:06;141.30;;;29.35;;
21270;SDS011;10795;50.796;3.860;2022-12-10T09:23:33;120.93;;;25.73;;
21270;SDS011;10795;50.796;3.860;2022-12-10T09:26:00;100.00;;;25.08;;
21270;SDS011;10795;50.796;3.860;2022-12-10T09:28:26;116.68;;;25.83;;
21270;SDS011;10795;50.796;3.860;2022-12-10T09:30:59;111.85;;;25.13;;
21270;SDS011;10795;50.796;3.860;2022-12-10T09:33:26;89.15;;;23.20;;
21270;SDS011;10795;50.796;3.860;2022-12-10T09:35:52;90.95;;;24.13;;
21270;SDS011;10795;50.796;3.860;2022-12-10T09:38:18;83.80;;;21.88;;
21270;SDS011;10795;50.796;3.860;2022-12-10T09:43:48;95.30;;;20.77;;
21270;SDS011;10795;50.796;3.860;2022-12-10T09:46:26;84.88;;;20.05;;
21270;SDS011;10795;50.796;3.860;2022-12-10T09:52:20;73.30;;;19.58;;
21270;SDS011;10795;50.796;3.860;2022-12-10T09:54:56;79.45;;;23.00;;
21270;SDS011;10795;50.796;3.860;2022-12-10T10:00:02;78.20;;;20.25;;
21270;SDS011;10795;50.796;3.860;2022-12-10T10:02:52;66.93;;;18.98;;
21270;SDS011;10795;50.796;3.860;2022-12-10T10:05:22;63.90;;;18.50;;
21270;SDS011;10795;50.796;3.860;2022-12-10T10:07:52;75.72;;;18.13;;
21270;SDS011;10795;50.796;3.860;2022-12-10T10:10:30;77.43;;;19.45;;
21270;SDS011;10795;50.796;3.860;2022-12-10T10:15:41;81.78;;;20.10;;
21270;SDS011;10795;50.796;3.860;2022-12-10T10:18:11;94.70;;;19.95;;
21270;SDS011;10795;50.796;3.860;2022-12-10T10:20:57;58.50;;;17.52;;
21270;SDS011;10795;50.796;3.860;2022-12-10T10:23:24;71.57;;;18.77;;
21270;SDS011;10795;50.796;3.860;2022-12-10T10:25:50;84.55;;;20.52;;
21270;SDS011;10795;50.796;3.860;2022-12-10T10:28:18;68.97;;;19.95;;
21270;SDS011;10795;50.796;3.860;2022-12-10T10:30:45;100.17;;;20.87;;
21270;SDS011;10795;50.796;3.860;2022-12-10T10:33:12;72.28;;;19.58;;
21270;SDS011;10795;50.796;3.860;2022-12-10T10:35:49;95.97;;;22.35;;
21270;SDS011;10795;50.796;3.860;2022-12-10T10:38:24;89.78;;;23.45;;
21270;SDS011;10795;50.796;3.860;2022-12-10T10:40:54;71.22;;;19.70;;
21270;SDS011;10795;50.796;3.860;2022-12-10T10:43:26;75.35;;;20.13;;
21270;SDS011;10795;50.796;3.860;2022-12-10T10:46:25;76.00;;;19.35;;
21270;SDS011;10795;50.796;3.860;2022-12-10T10:48:51;80.00;;;21.70;;
21270;SDS011;10795;50.796;3.860;2022-12-10T10:51:21;100.95;;;25.50;;
21270;SDS011;10795;50.796;3.860;2022-12-10T10:53:50;87.93;;;23.02;;
21270;SDS011;10795;50.796;3.860;2022-12-10T10:56:24;104.50;;;29.42;;
21270;SDS011;10795;50.796;3.860;2022-12-10T10:59:04;88.13;;;23.88;;
21270;SDS011;10795;50.796;3.860;2022-12-10T11:04:13;84.55;;;26.08;;
21270;SDS011;10795;50.796;3.860;2022-12-10T11:06:41;93.25;;;21.92;;
21270;SDS011;10795;50.796;3.860;2022-12-10T11:09:08;88.75;;;23.35;;
21270;SDS011;10795;50.796;3.860;2022-12-10T11:11:45;85.07;;;21.65;;
21270;SDS011;10795;50.796;3.860;2022-12-10T11:14:24;84.65;;;20.02;;
21270;SDS011;10795;50.796;3.860;2022-12-10T11:19:38;90.25;;;23.17;;
21270;SDS011;10795;50.796;3.860;2022-12-10T11:22:16;80.22;;;22.40;;
21270;SDS011;10795;50.796;3.860;2022-12-10T11:24:45;77.55;;;20.10;;
21270;SDS011;10795;50.796;3.860;2022-12-10T11:27:13;77.50;;;21.73;;
21270;SDS011;10795;50.796;3.860;2022-12-10T11:35:45;88.35;;;26.77;;
21270;SDS011;10795;50.796;3.860;2022-12-10T11:38:38;87.55;;;23.13;;
21270;SDS011;10795;50.796;3.860;2022-12-10T11:41:17;84.03;;;24.00;;
21270;SDS011;10795;50.796;3.860;2022-12-10T11:54:25;76.85;;;20.38;;
21270;SDS011;10795;50.796;3.860;2022-12-10T11:57:02;94.57;;;25.55;;
21270;SDS011;10795;50.796;3.860;2022-12-10T12:02:38;85.30;;;25.85;;
21270;SDS011;10795;50.796;3.860;2022-12-10T12:14:01;107.65;;;26.00;;
21270;SDS011;10795;50.796;3.860;2022-12-10T12:19:31;117.00;;;33.88;;
21270;SDS011;10795;50.796;3.860;2022-12-10T12:22:27;105.50;;;29.67;;
21270;SDS011;10795;50.796;3.860;2022-12-10T12:24:59;94.00;;;24.65;;
21270;SDS011;10795;50.796;3.860;2022-12-10T12:27:35;78.22;;;24.25;;
21270;SDS011;10795;50.796;3.860;2022-12-10T12:30:28;81.10;;;23.70;;
21270;SDS011;10795;50.796;3.860;2022-12-10T12:32:57;69.75;;;20.13;;
21270;SDS011;10795;50.796;3.860;2022-12-10T12:44:18;94.45;;;25.38;;
21270;SDS011;10795;50.796;3.860;2022-12-10T12:46:58;83.43;;;25.73;;
21270;SDS011;10795;50.796;3.860;2022-12-10T12:52:09;106.00;;;37.13;;
21270;SDS011;10795;50.796;3.860;2022-12-10T12:54:51;84.90;;;26.20;;
21270;SDS011;10795;50.796;3.860;2022-12-10T12:57:28;81.82;;;23.63;;
21270;SDS011;10795;50.796;3.860;2022-12-10T13:00:03;82.70;;;24.67;;
21270;SDS011;10795;50.796;3.860;2022-12-10T13:05:25;83.95;;;25.30;;
21270;SDS011;10795;50.796;3.860;2022-12-10T13:16:35;87.05;;;24.33;;
21270;SDS011;10795;50.796;3.860;2022-12-10T13:19:31;79.00;;;23.15;;
21270;SDS011;10795;50.796;3.860;2022-12-10T13:29:58;77.68;;;24.35;;
21270;SDS011;10795;50.796;3.860;2022-12-10T13:37:33;67.30;;;22.60;;
21270;SDS011;10795;50.796;3.860;2022-12-10T13:42:37;75.18;;;24.52;;
21270;SDS011;10795;50.796;3.860;2022-12-10T13:45:24;69.80;;;24.13;;
21270;SDS011;10795;50.796;3.860;2022-12-10T13:47:53;76.45;;;23.50;;
21270;SDS011;10795;50.796;3.860;2022-12-10T14:03:37;68.82;;;24.90;;
21270;SDS011;10795;50.796;3.860;2022-12-10T14:06:23;67.80;;;23.23;;
21270;SDS011;10795;50.796;3.860;2022-12-10T14:11:23;66.65;;;23.63;;
21270;SDS011;10795;50.796;3.860;2022-12-10T14:13:56;57.20;;;22.48;;
21270;SDS011;10795;50.796;3.860;2022-12-10T14:16:23;87.10;;;30.85;;
21270;SDS011;10795;50.796;3.860;2022-12-10T14:18:53;125.57;;;45.80;;
21270;SDS011;10795;50.796;3.860;2022-12-10T14:21:24;122.68;;;41.28;;
21270;SDS011;10795;50.796;3.860;2022-12-10T14:23:51;70.45;;;28.73;;
21270;SDS011;10795;50.796;3.860;2022-12-10T14:26:19;60.67;;;23.67;;
21270;SDS011;10795;50.796;3.860;2022-12-10T14:28:58;61.63;;;24.17;;
21270;SDS011;10795;50.796;3.860;2022-12-10T14:31:28;59.92;;;23.50;;
21270;SDS011;10795;50.796;3.860;2022-12-10T14:34:02;65.07;;;24.60;;
21270;SDS011;10795;50.796;3.860;2022-12-10T14:36:36;58.90;;;24.85;;
21270;SDS011;10795;50.796;3.860;2022-12-10T14:39:27;61.65;;;24.10;;
21270;SDS011;10795;50.796;3.860;2022-12-10T14:41:56;56.17;;;23.45;;
21270;SDS011;10795;50.796;3.860;2022-12-10T14:44:24;60.33;;;23.23;;
21270;SDS011;10795;50.796;3.860;2022-12-10T14:46:50;57.28;;;21.48;;
21270;SDS011;10795;50.796;3.860;2022-12-10T14:49:21;58.35;;;22.75;;
21270;SDS011;10795;50.796;3.860;2022-12-10T14:51:50;58.03;;;21.48;;
21270;SDS011;10795;50.796;3.860;2022-12-10T14:54:30;52.95;;;20.83;;
21270;SDS011;10795;50.796;3.860;2022-12-10T14:56:58;54.67;;;21.23;;
21270;SDS011;10795;50.796;3.860;2022-12-10T14:59:32;53.28;;;21.27;;
21270;SDS011;10795;50.796;3.860;2022-12-10T15:02:24;48.33;;;20.02;;
21270;SDS011;10795;50.796;3.860;2022-12-10T15:04:54;48.15;;;18.95;;
21270;SDS011;10795;50.796;3.860;2022-12-10T15:07:22;51.50;;;21.45;;
21270;SDS011;10795;50.796;3.860;2022-12-10T15:09:50;53.03;;;21.35;;
21270;SDS011;10795;50.796;3.860;2022-12-10T15:14:53;51.28;;;21.52;;
21270;SDS011;10795;50.796;3.860;2022-12-10T15:17:32;51.97;;;20.70;;
21270;SDS011;10795;50.796;3.860;2022-12-10T15:20:21;47.00;;;19.90;;
21270;SDS011;10795;50.796;3.860;2022-12-10T15:22:52;49.10;;;19.75;;
21270;SDS011;10795;50.796;3.860;2022-12-10T15:25:23;52.17;;;22.33;;
21270;SDS011;10795;50.796;3.860;2022-12-10T15:27:53;51.83;;;21.27;;
21270;SDS011;10795;50.796;3.860;2022-12-10T15:30:24;50.95;;;21.23;;
21270;SDS011;10795;50.796;3.860;2022-12-10T15:32:57;49.38;;;21.70;;
21270;SDS011;10795;50.796;3.860;2022-12-10T15:35:23;51.63;;;22.00;;
21270;SDS011;10795;50.796;3.860;2022-12-10T15:37:49;52.22;;;21.70;;
21270;SDS011;10795;50.796;3.860;2022-12-10T15:40:28;52.97;;;23.13;;
21270;SDS011;10795;50.796;3.860;2022-12-10T15:45:49;49.00;;;21.33;;
21270;SDS011;10795;50.796;3.860;2022-12-10T15:48:15;54.85;;;22.80;;
21270;SDS011;10795;50.796;3.860;2022-12-10T15:50:41;53.08;;;22.75;;
21270;SDS011;10795;50.796;3.860;2022-12-10T15:53:13;50.22;;;20.98;;
21270;SDS011;10795;50.796;3.860;2022-12-10T15:55:43;47.65;;;21.63;;
21270;SDS011;10795;50.796;3.860;2022-12-10T15:58:11;47.28;;;20.38;;
21270;SDS011;10795;50.796;3.860;2022-12-10T16:00:39;41.70;;;19.30;;
21270;SDS011;10795;50.796;3.860;2022-12-10T16:03:12;47.42;;;20.25;;
21270;SDS011;10795;50.796;3.860;2022-12-10T16:05:43;38.20;;;17.88;;
21270;SDS011;10795;50.796;3.860;2022-12-10T16:08:24;51.92;;;22.67;;
21270;SDS011;10795;50.796;3.860;2022-12-10T16:10:53;44.13;;;21.67;;
21270;SDS011;10795;50.796;3.860;2022-12-10T16:13:24;46.95;;;22.85;;
21270;SDS011;10795;50.796;3.860;2022-12-10T16:15:57;44.17;;;22.05;;
21270;SDS011;10795;50.796;3.860;2022-12-10T16:18:25;42.58;;;22.20;;
21270;SDS011;10795;50.796;3.860;2022-12-10T16:20:51;46.08;;;21.92;;
21270;SDS011;10795;50.796;3.860;2022-12-10T16:23:17;50.88;;;23.65;;
21270;SDS011;10795;50.796;3.860;2022-12-10T16:25:43;48.20;;;23.55;;
21270;SDS011;10795;50.796;3.860;2022-12-10T16:28:11;46.78;;;22.88;;
21270;SDS011;10795;50.796;3.860;2022-12-10T16:30:43;45.63;;;23.27;;
21270;SDS011;10795;50.796;3.860;2022-12-10T16:33:10;45.10;;;22.45;;
21270;SDS011;10795;50.796;3.860;2022-12-10T16:35:37;46.85;;;21.67;;
21270;SDS011;10795;50.796;3.860;2022-12-10T16:38:02;46.75;;;22.75;;
21270;SDS011;10795;50.796;3.860;2022-12-10T16:40:29;49.95;;;23.52;;
21270;SDS011;10795;50.796;3.860;2022-12-10T16:42:55;43.70;;;22.35;;